createdAt,value
2018-02-09T00:02:08.470Z,93799.19
2018-02-09T00:04:35.006Z,93797.18
2018-02-09T00:07:01.632Z,93794.38
2018-02-09T00:09:28.164Z,93797.02
2018-02-09T00:11:54.694Z,93800.64
2018-02-09T00:14:21.952Z,93800.48
2018-02-09T00:16:48.491Z,93802.58
2018-02-09T00:19:14.987Z,93802.52
2018-02-09T00:21:41.612Z,93796.27
2018-02-09T00:24:08.140Z,93799.34
2018-02-09T00:26:34.635Z,93799.06
2018-02-09T00:29:01.191Z,93802.71
2018-02-09T00:31:27.690Z,93795.01
2018-02-09T00:33:54.272Z,93791.20
2018-02-09T00:36:20.816Z,93788.22
2018-02-09T00:38:47.363Z,93786.58
2018-02-09T00:41:13.944Z,93786.98
2018-02-09T00:43:40.481Z,93790.80
2018-02-09T00:46:06.990Z,93791.48
2018-02-09T00:48:33.524Z,93792.78
2018-02-09T00:51:00.796Z,93796.17
2018-02-09T00:53:28.076Z,93795.23
2018-02-09T00:55:55.400Z,93793.25
2018-02-09T00:58:22.656Z,93794.06
2018-02-09T01:00:49.916Z,93795.42
2018-02-09T01:03:17.293Z,93788.91
2018-02-09T01:05:45.340Z,93788.37
2018-02-09T01:08:11.832Z,93785.81
2018-02-09T01:10:38.375Z,93789.94
2018-02-09T01:13:04.927Z,93779.68
2018-02-09T01:15:32.179Z,93775.05
2018-02-09T01:18:00.368Z,93779.21
2018-02-09T01:20:27.652Z,93771.38
2018-02-09T01:22:54.313Z,93773.95
2018-02-09T01:25:20.825Z,93775.66
2018-02-09T01:27:47.355Z,93771.38
2018-02-09T01:30:13.883Z,93770.56
2018-02-09T01:32:40.421Z,93775.56
2018-02-09T01:35:06.957Z,93771.50
2018-02-09T01:37:33.475Z,93768.35
2018-02-09T01:40:00.082Z,93771.75
2018-02-09T01:42:27.332Z,93774.33
2018-02-09T01:44:53.856Z,93768.86
2018-02-09T01:47:20.427Z,93767.28
2018-02-09T01:50:05.380Z,93768.64
2018-02-09T01:52:31.905Z,93767.91
2018-02-09T01:54:59.185Z,93766.06
2018-02-09T01:57:25.772Z,93766.75
2018-02-09T01:59:52.301Z,93765.52
2018-02-09T02:02:18.863Z,93759.70
2018-02-09T02:04:46.132Z,93759.23
2018-02-09T02:07:13.556Z,93756.31
2018-02-09T02:09:40.070Z,93759.48
2018-02-09T02:12:07.362Z,93758.48
2018-02-09T02:14:33.911Z,93765.40
2018-02-09T02:17:01.167Z,93757.50
2018-02-09T02:19:27.723Z,93762.70
2018-02-09T02:21:54.411Z,93756.49
2018-02-09T02:24:20.930Z,93751.83
2018-02-09T02:26:48.188Z,93754.25
2018-02-09T02:29:14.701Z,93755.30
2018-02-09T02:31:41.240Z,93746.53
2018-02-09T02:34:07.778Z,93746.03
2018-02-09T02:36:34.340Z,93739.47
2018-02-09T02:39:00.842Z,93735.52
2018-02-09T02:41:27.430Z,93734.84
2018-02-09T02:43:54.754Z,93734.31
2018-02-09T02:46:21.329Z,93732.61
2018-02-09T02:48:48.623Z,93740.41
2018-02-09T02:51:16.171Z,93735.53
2018-02-09T02:53:42.741Z,93726.30
2018-02-09T02:56:09.317Z,93722.13
2018-02-09T02:58:36.633Z,93724.59
2018-02-09T03:01:03.967Z,93722.86
2018-02-09T03:03:30.566Z,93727.77
2018-02-09T03:05:57.128Z,93721.51
2018-02-09T03:08:23.809Z,93725.79
2018-02-09T03:10:51.147Z,93721.19
2018-02-09T03:13:17.830Z,93717.59
2018-02-09T03:15:44.457Z,93724.60
2018-02-09T03:18:11.055Z,93720.98
2018-02-09T03:20:37.626Z,93720.72
2018-02-09T03:23:04.955Z,93708.50
2018-02-09T03:25:31.533Z,93711.81
2018-02-09T03:27:58.119Z,93706.47
2018-02-09T03:30:24.690Z,93709.16
2018-02-09T03:32:51.277Z,93710.39
2018-02-09T03:35:17.834Z,93707.94
2018-02-09T03:37:45.168Z,93709.05
2018-02-09T03:40:11.748Z,93705.49
2018-02-09T03:42:39.189Z,93710.12
2018-02-09T03:45:05.741Z,93708.57
2018-02-09T03:47:33.058Z,93698.59
2018-02-09T03:49:59.645Z,93698.91
2018-02-09T03:52:26.979Z,93702.37
2018-02-09T03:54:53.525Z,93705.92
2018-02-09T03:57:20.102Z,93707.55
2018-02-09T03:59:47.682Z,93706.58
2018-02-09T04:02:14.240Z,93702.31
2018-02-09T04:04:41.565Z,93700.84
2018-02-09T04:07:08.137Z,93706.05
2018-02-09T04:09:35.457Z,93703.75
2018-02-09T04:12:02.029Z,93706.46
2018-02-09T04:14:29.362Z,93711.77
2018-02-09T04:16:55.937Z,93703.45
2018-02-09T04:19:22.489Z,93704.13
2018-02-09T04:21:49.170Z,93707.75
2018-02-09T04:24:16.517Z,93711.55
2018-02-09T04:26:43.090Z,93709.11
2018-02-09T04:29:10.430Z,93716.38
2018-02-09T04:31:37.010Z,93711.69
2018-02-09T04:34:03.591Z,93713.13
2018-02-09T04:36:30.159Z,93712.85
2018-02-09T04:38:56.729Z,93709.58
2018-02-09T04:41:23.343Z,93709.70
2018-02-09T04:43:49.926Z,93704.00
2018-02-09T04:46:16.525Z,93709.45
2018-02-09T04:48:43.087Z,93707.13
2018-02-09T04:51:09.659Z,93706.11
2018-02-09T04:53:36.221Z,93708.62
2018-02-09T04:56:02.795Z,93709.04
2018-02-09T04:58:29.366Z,93709.86
2018-02-09T05:00:55.931Z,93709.56
2018-02-09T05:03:22.497Z,93712.43
2018-02-09T05:05:49.102Z,93701.16
2018-02-09T05:08:15.663Z,93709.30
2018-02-09T05:10:42.221Z,93706.61
2018-02-09T05:13:08.996Z,93710.40
2018-02-09T05:15:35.568Z,93702.91
2018-02-09T05:18:02.826Z,93705.08
2018-02-09T05:20:29.387Z,93699.55
2018-02-09T05:22:56.034Z,93704.16
2018-02-09T05:25:22.670Z,93706.20
2018-02-09T05:27:49.527Z,93705.75
2018-02-09T05:30:16.866Z,93696.13
2018-02-09T05:32:44.218Z,93702.91
2018-02-09T05:35:10.786Z,93698.70
2018-02-09T05:37:38.377Z,93687.30
2018-02-09T05:40:04.951Z,93693.36
2018-02-09T05:42:31.509Z,93690.98
2018-02-09T05:44:58.850Z,93687.85
2018-02-09T05:47:25.390Z,93685.55
2018-02-09T05:49:52.714Z,93681.31
2018-02-09T05:52:19.307Z,93681.27
2018-02-09T05:54:45.877Z,93677.13
2018-02-09T05:57:12.438Z,93674.61
2018-02-09T05:59:39.012Z,93675.77
2018-02-09T06:02:05.626Z,93676.98
2018-02-09T06:04:32.967Z,93668.30
2018-02-09T06:07:00.497Z,93661.64
2018-02-09T06:09:27.290Z,93668.31
2018-02-09T06:11:54.614Z,93667.21
2018-02-09T06:14:21.193Z,93670.48
2018-02-09T06:16:48.485Z,93665.38
2018-02-09T06:19:15.062Z,93666.86
2018-02-09T06:21:41.612Z,93668.28
2018-02-09T06:24:08.936Z,93670.25
2018-02-09T06:26:36.266Z,93668.92
2018-02-09T06:29:02.871Z,93671.36
2018-02-09T06:31:29.475Z,93671.34
2018-02-09T06:33:56.796Z,93672.44
2018-02-09T06:36:23.386Z,93673.59
2018-02-09T06:38:50.730Z,93676.77
2018-02-09T06:41:18.034Z,93671.36
2018-02-09T06:43:44.624Z,93671.02
2018-02-09T06:46:11.954Z,93668.71
2018-02-09T06:48:39.262Z,93672.31
2018-02-09T06:51:05.840Z,93673.20
2018-02-09T06:53:33.212Z,93672.44
2018-02-09T06:56:00.541Z,93669.39
2018-02-09T06:58:27.105Z,93668.95
2018-02-09T07:00:53.737Z,93670.59
2018-02-09T07:03:21.085Z,93668.55
2018-02-09T07:05:47.724Z,93665.24
2018-02-09T07:08:14.328Z,93669.52
2018-02-09T07:10:40.956Z,93667.20
2018-02-09T07:13:07.570Z,93666.55
2018-02-09T07:15:34.314Z,93664.77
2018-02-09T07:18:00.894Z,93666.11
2018-02-09T07:20:27.451Z,93664.08
2018-02-09T07:22:54.120Z,93666.11
2018-02-09T07:25:20.710Z,93666.81
2018-02-09T07:27:47.287Z,93664.08
2018-02-09T07:30:13.870Z,93658.80
2018-02-09T07:32:40.534Z,93655.95
2018-02-09T07:35:07.117Z,93660.08
2018-02-09T07:37:33.747Z,93657.02
2018-02-09T07:40:00.364Z,93658.06
2018-02-09T07:42:26.987Z,93653.90
2018-02-09T07:44:54.341Z,93652.83
2018-02-09T07:47:21.664Z,93649.77
2018-02-09T07:49:48.311Z,93654.44
2018-02-09T07:52:14.894Z,93644.81
2018-02-09T07:54:41.515Z,93643.98
2018-02-09T07:57:08.826Z,93645.08
2018-02-09T07:59:35.459Z,93651.34
2018-02-09T08:02:02.148Z,93645.22
2018-02-09T08:04:28.764Z,93647.11
2018-02-09T08:06:55.357Z,93644.95
2018-02-09T08:09:21.949Z,93641.70
2018-02-09T08:11:49.317Z,93638.70
2018-02-09T08:14:15.919Z,93640.67
2018-02-09T08:16:42.522Z,93643.85
2018-02-09T08:19:09.110Z,93639.78
2018-02-09T08:21:35.725Z,93636.19
2018-02-09T08:24:02.328Z,93635.64
2018-02-09T08:26:29.289Z,93634.89
2018-02-09T08:28:55.882Z,93633.52
2018-02-09T08:31:22.495Z,93628.95
2018-02-09T08:33:49.067Z,93623.98
2018-02-09T08:36:15.677Z,93623.52
2018-02-09T08:38:43.014Z,93620.91
2018-02-09T08:41:09.596Z,93615.13
2018-02-09T08:43:36.198Z,93612.15
2018-02-09T08:46:03.862Z,93611.03
2018-02-09T08:48:31.202Z,93613.62
2018-02-09T08:50:57.782Z,93611.70
2018-02-09T08:53:24.394Z,93616.64
2018-02-09T08:55:51.995Z,93604.27
2018-02-09T08:58:18.591Z,93602.61
2018-02-09T09:00:45.945Z,93596.15
2018-02-09T09:03:13.245Z,93597.81
2018-02-09T09:05:39.830Z,93600.13
2018-02-09T09:08:06.437Z,93597.54
2018-02-09T09:10:33.079Z,93594.50
2018-02-09T09:12:59.670Z,93594.05
2018-02-09T09:15:26.272Z,93581.59
2018-02-09T09:17:53.642Z,93581.33
2018-02-09T09:20:20.966Z,93581.48
2018-02-09T09:22:47.629Z,93580.19
2018-02-09T09:25:14.990Z,93576.56
2018-02-09T09:27:42.322Z,93571.68
2018-02-09T09:30:08.971Z,93569.55
2018-02-09T09:32:36.305Z,93567.73
2018-02-09T09:35:03.902Z,93571.53
2018-02-09T09:37:30.675Z,93563.16
2018-02-09T09:39:57.299Z,93568.83
2018-02-09T09:42:23.888Z,93571.85
2018-02-09T09:44:50.513Z,93554.45
2018-02-09T09:47:17.114Z,93556.38
2018-02-09T09:49:43.723Z,93555.71
2018-02-09T09:52:10.370Z,93554.77
2018-02-09T09:54:36.996Z,93557.47
2018-02-09T09:57:03.619Z,93557.24
2018-02-09T09:59:30.262Z,93558.07
2018-02-09T10:01:56.867Z,93549.36
2018-02-09T10:04:23.468Z,93556.25
2018-02-09T10:06:50.074Z,93545.42
2018-02-09T10:09:17.426Z,93546.32
2018-02-09T10:11:44.767Z,93543.83
2018-02-09T10:14:11.358Z,93544.06
2018-02-09T10:16:37.962Z,93542.14
2018-02-09T10:19:05.318Z,93538.47
2018-02-09T10:21:32.637Z,93537.11
2018-02-09T10:23:59.251Z,93538.19
2018-02-09T10:26:25.905Z,93538.35
2018-02-09T10:28:53.274Z,93529.41
2018-02-09T10:31:19.908Z,93537.53
2018-02-09T10:33:46.470Z,93539.98
2018-02-09T10:36:13.906Z,93531.33
2018-02-09T10:38:40.503Z,93530.36
2018-02-09T10:41:07.093Z,93526.23
2018-02-09T10:43:33.770Z,93520.00
2018-02-09T10:46:00.322Z,93515.79
2018-02-09T10:48:26.955Z,93513.06
2018-02-09T10:50:53.598Z,93517.27
2018-02-09T10:53:20.268Z,93512.02
2018-02-09T10:55:46.858Z,93513.45
2018-02-09T10:58:13.486Z,93514.77
2018-02-09T11:00:46.106Z,93504.41
2018-02-09T11:03:12.770Z,93502.62
2018-02-09T11:05:39.348Z,93507.20
2018-02-09T11:08:06.030Z,93500.05
2018-02-09T11:10:33.430Z,93501.88
2018-02-09T11:13:00.401Z,93496.84
2018-02-09T11:15:26.970Z,93492.48
2018-02-09T11:17:53.525Z,93494.67
2018-02-09T11:20:20.868Z,93495.61
2018-02-09T11:22:48.195Z,93491.11
2018-02-09T11:25:15.702Z,93493.50
2018-02-09T11:27:42.317Z,93490.56
2018-02-09T11:30:08.955Z,93491.84
2018-02-09T11:32:36.318Z,93487.16
2018-02-09T11:35:03.704Z,93488.84
2018-02-09T11:37:30.301Z,93487.34
2018-02-09T11:39:57.646Z,93481.08
2018-02-09T11:42:24.351Z,93480.48
2018-02-09T11:44:51.233Z,93478.78
2018-02-09T11:47:18.647Z,93478.84
2018-02-09T11:49:45.237Z,93472.56
2018-02-09T11:52:12.562Z,93468.43
2018-02-09T11:54:39.187Z,93465.14
2018-02-09T11:57:05.785Z,93463.53
2018-02-09T11:59:32.439Z,93463.11
2018-02-09T12:01:59.057Z,93453.36
2018-02-09T12:04:25.671Z,93453.23
2018-02-09T12:06:53.013Z,93453.64
2018-02-09T12:09:19.578Z,93459.84
2018-02-09T12:11:46.346Z,93448.86
2018-02-09T12:14:12.922Z,93455.20
2018-02-09T12:16:39.528Z,93449.68
2018-02-09T12:19:06.143Z,93442.95
2018-02-09T12:21:32.762Z,93445.81
2018-02-09T12:24:00.111Z,93439.13
2018-02-09T12:26:26.741Z,93439.17
2018-02-09T12:28:53.298Z,93440.27
2018-02-09T12:31:19.878Z,93434.48
2018-02-09T12:33:47.299Z,93433.59
2018-02-09T12:36:13.914Z,93430.55
2018-02-09T12:38:41.250Z,93426.23
2018-02-09T12:41:07.858Z,93426.84
2018-02-09T12:43:34.470Z,93425.65
2018-02-09T12:46:01.079Z,93421.61
2018-02-09T12:48:27.682Z,93423.92
2018-02-09T12:50:55.057Z,93418.11
2018-02-09T12:53:21.635Z,93416.83
2018-02-09T12:55:48.246Z,93415.56
2018-02-09T12:58:15.564Z,93409.67
2018-02-09T13:00:42.177Z,93406.70
2018-02-09T13:03:08.756Z,93406.70
2018-02-09T13:05:35.419Z,93409.81
2018-02-09T13:08:02.757Z,93409.22
2018-02-09T13:10:29.365Z,93409.74
2018-02-09T13:13:06.164Z,93403.14
2018-02-09T13:15:33.337Z,93402.31
2018-02-09T13:17:59.983Z,93403.70
2018-02-09T13:20:26.641Z,93401.78
2018-02-09T13:23:11.617Z,93399.86
2018-02-09T13:25:38.938Z,93400.16
2018-02-09T13:28:05.526Z,93396.53
2018-02-09T13:30:32.346Z,93399.27
2018-02-09T13:33:17.413Z,93392.86
2018-02-09T13:35:44.719Z,93393.75
2018-02-09T13:38:12.083Z,93399.58
2018-02-09T13:40:38.706Z,93389.30
2018-02-09T13:43:05.319Z,93394.95
2018-02-09T13:45:31.978Z,93388.07
2018-02-09T13:47:58.886Z,93381.05
2018-02-09T13:50:25.472Z,93379.08
2018-02-09T13:52:52.769Z,93383.59
2018-02-09T13:55:19.395Z,93382.23
2018-02-09T13:57:45.973Z,93376.42
2018-02-09T14:00:12.596Z,93378.44
2018-02-09T14:02:39.182Z,93379.20
2018-02-09T14:05:05.791Z,93369.86
2018-02-09T14:07:32.415Z,93368.77
2018-02-09T14:09:59.026Z,93361.49
2018-02-09T14:12:27.030Z,93367.08
2018-02-09T14:14:53.621Z,93367.75
2018-02-09T14:17:20.201Z,93368.70
2018-02-09T14:19:46.788Z,93366.86
2018-02-09T14:22:13.405Z,93374.20
2018-02-09T14:24:40.034Z,93371.42
2018-02-09T14:27:07.415Z,93369.23
2018-02-09T14:29:33.990Z,93370.67
2018-02-09T14:32:00.550Z,93374.83
2018-02-09T14:34:27.155Z,93369.00
2018-02-09T14:36:53.810Z,93372.59
2018-02-09T14:39:20.405Z,93367.00
2018-02-09T14:41:46.998Z,93367.06
2018-02-09T14:44:13.629Z,93365.77
2018-02-09T14:46:40.248Z,93367.25
2018-02-09T14:49:06.897Z,93361.89
2018-02-09T14:51:33.561Z,93363.05
2018-02-09T14:54:00.922Z,93364.41
2018-02-09T14:56:27.565Z,93364.08
2018-02-09T14:58:54.966Z,93366.36
2018-02-09T15:01:21.586Z,93364.28
2018-02-09T15:03:48.189Z,93371.13
2018-02-09T15:06:15.545Z,93372.56
2018-02-09T15:08:42.146Z,93373.09
2018-02-09T15:11:08.757Z,93378.50
2018-02-09T15:13:35.346Z,93381.37
2018-02-09T15:16:01.933Z,93383.72
2018-02-09T15:18:28.550Z,93383.95
2018-02-09T15:20:55.717Z,93384.63
2018-02-09T15:23:22.286Z,93382.04
2018-02-09T15:25:48.858Z,93378.83
2018-02-09T15:28:15.523Z,93379.19
2018-02-09T15:30:42.114Z,93378.85
2018-02-09T15:33:09.510Z,93373.95
2018-02-09T15:35:36.166Z,93378.61
2018-02-09T15:38:02.828Z,93379.41
2018-02-09T15:40:29.424Z,93377.87
2018-02-09T15:42:56.011Z,93377.56
2018-02-09T15:45:22.583Z,93377.70
2018-02-09T15:47:49.202Z,93385.17
2018-02-09T15:50:15.798Z,93371.73
2018-02-09T15:52:42.387Z,93371.58
2018-02-09T15:55:09.030Z,93371.86
2018-02-09T15:57:35.629Z,93368.64
2018-02-09T16:00:02.365Z,93378.83
2018-02-09T16:02:28.971Z,93372.17
2018-02-09T16:04:55.571Z,93370.55
2018-02-09T16:07:22.178Z,93371.34
2018-02-09T16:09:48.779Z,93368.46
2018-02-09T16:12:15.383Z,93367.39
2018-02-09T16:14:41.999Z,93366.20
2018-02-09T16:17:09.384Z,93364.83
2018-02-09T16:19:35.991Z,93369.28
2018-02-09T16:22:02.666Z,93372.77
2018-02-09T16:24:29.239Z,93377.80
2018-02-09T16:26:55.876Z,93369.69
2018-02-09T16:29:22.478Z,93377.66
2018-02-09T16:31:49.066Z,93374.18
2018-02-09T16:34:15.671Z,93378.80
2018-02-09T16:36:42.249Z,93380.34
2018-02-09T16:39:09.589Z,93396.94
2018-02-09T16:41:36.202Z,93392.08
2018-02-09T16:44:02.877Z,93394.25
2018-02-09T16:46:29.492Z,93397.44
2018-02-09T16:48:56.883Z,93398.41
2018-02-09T16:51:24.243Z,93398.06
2018-02-09T16:53:50.867Z,93397.42
2018-02-09T16:56:18.229Z,93406.81
2018-02-09T16:58:45.574Z,93405.22
2018-02-09T17:01:12.945Z,93399.89
2018-02-09T17:03:39.615Z,93403.89
2018-02-09T17:06:06.199Z,93399.03
2018-02-09T17:08:32.847Z,93396.62
2018-02-09T17:11:00.186Z,93393.98
2018-02-09T17:13:26.762Z,93398.66
2018-02-09T17:15:53.403Z,93407.77
2018-02-09T17:18:19.999Z,93404.47
2018-02-09T17:20:46.579Z,93406.20
2018-02-09T17:23:13.210Z,93404.84
2018-02-09T17:25:39.783Z,93413.41
2018-02-09T17:28:06.444Z,93414.22
2018-02-09T17:30:33.788Z,93418.67
2018-02-09T17:33:00.416Z,93417.69
2018-02-09T17:35:27.027Z,93415.09
2018-02-09T17:37:53.622Z,93421.02
2018-02-09T17:40:20.241Z,93416.56
2018-02-09T17:42:46.845Z,93413.44
2018-02-09T17:45:13.483Z,93422.51
2018-02-09T17:47:40.093Z,93417.55
2018-02-09T17:50:06.701Z,93422.00
2018-02-09T17:52:34.091Z,93420.16
2018-02-09T17:55:00.731Z,93424.99
2018-02-09T17:57:27.382Z,93424.20
2018-02-09T17:59:53.984Z,93426.34
2018-02-09T18:02:20.562Z,93426.52
2018-02-09T18:04:47.137Z,93426.28
2018-02-09T18:07:13.747Z,93426.72
2018-02-09T18:09:40.370Z,93418.40
2018-02-09T18:12:06.981Z,93420.41
2018-02-09T18:14:33.617Z,93423.70
2018-02-09T18:17:00.353Z,93433.20
2018-02-09T18:19:27.031Z,93429.09
2018-02-09T18:21:54.364Z,93437.02
2018-02-09T18:24:20.942Z,93441.88
2018-02-09T18:26:48.369Z,93439.25
2018-02-09T18:29:15.088Z,93442.86
2018-02-09T18:31:41.714Z,93437.19
2018-02-09T18:34:08.376Z,93441.09
2018-02-09T18:36:34.962Z,93439.36
2018-02-09T18:39:01.638Z,93436.47
2018-02-09T18:41:28.305Z,93435.20
2018-02-09T18:43:55.241Z,93426.62
2018-02-09T18:46:21.832Z,93433.41
2018-02-09T18:48:48.428Z,93435.66
2018-02-09T18:51:15.100Z,93441.84
2018-02-09T18:53:42.478Z,93430.63
2018-02-09T18:56:09.072Z,93434.97
2018-02-09T18:58:35.693Z,93436.88
2018-02-09T19:01:02.309Z,93426.75
2018-02-09T19:03:28.963Z,93430.77
2018-02-09T19:05:55.545Z,93430.48
2018-02-09T19:08:23.123Z,93430.95
2018-02-09T19:10:50.341Z,93437.18
2018-02-09T19:13:16.942Z,93427.56
2018-02-09T19:15:43.577Z,93430.45
2018-02-09T19:18:10.136Z,93433.98
2018-02-09T19:20:36.734Z,93433.84
2018-02-09T19:23:03.290Z,93438.30
2018-02-09T19:25:29.900Z,93427.70
2018-02-09T19:27:56.593Z,93427.48
2018-02-09T19:30:23.980Z,93435.62
2018-02-09T19:32:50.604Z,93437.92
2018-02-09T19:35:17.948Z,93438.08
2018-02-09T19:37:44.549Z,93440.80
2018-02-09T19:40:11.128Z,93438.85
2018-02-09T19:42:37.763Z,93438.96
2018-02-09T19:45:04.448Z,93444.09
2018-02-09T19:47:31.038Z,93441.45
2018-02-09T19:49:58.386Z,93439.27
2018-02-09T19:52:25.011Z,93443.73
2018-02-09T19:54:52.398Z,93445.09
2018-02-09T19:57:20.016Z,93446.97
2018-02-09T19:59:46.627Z,93447.52
2018-02-09T20:02:13.222Z,93449.88
2018-02-09T20:04:39.840Z,93450.73
2018-02-09T20:07:07.202Z,93453.42
2018-02-09T20:09:33.792Z,93453.05
2018-02-09T20:12:00.453Z,93456.99
2018-02-09T20:14:27.139Z,93460.66
2018-02-09T20:16:53.789Z,93464.19
2018-02-09T20:19:20.480Z,93459.30
2018-02-09T20:21:47.509Z,93466.57
2018-02-09T20:24:14.096Z,93466.57
2018-02-09T20:26:41.490Z,93460.79
2018-02-09T20:29:08.068Z,93468.45
2018-02-09T20:31:35.486Z,93469.67
2018-02-09T20:34:02.104Z,93465.03
2018-02-09T20:36:28.736Z,93459.89
2018-02-09T20:38:55.548Z,93465.12
2018-02-09T20:41:22.138Z,93466.28
2018-02-09T20:43:48.714Z,93465.83
2018-02-09T20:46:16.048Z,93461.33
2018-02-09T20:48:43.446Z,93466.34
2018-02-09T20:51:10.803Z,93465.19
2018-02-09T20:53:37.507Z,93468.26
2018-02-09T20:56:04.134Z,93465.55
2018-02-09T20:58:30.854Z,93465.27
2018-02-09T21:00:57.465Z,93468.83
2018-02-09T21:03:24.029Z,93474.92
2018-02-09T21:05:50.723Z,93471.25
2018-02-09T21:08:17.305Z,93471.79
2018-02-09T21:10:43.951Z,93471.79
2018-02-09T21:13:10.527Z,93468.56
2018-02-09T21:15:37.121Z,93471.58
2018-02-09T21:18:03.714Z,93470.59
2018-02-09T21:20:30.348Z,93470.94
2018-02-09T21:22:57.661Z,93471.17
2018-02-09T21:25:24.277Z,93469.72
2018-02-09T21:27:50.869Z,93469.23
2018-02-09T21:30:18.491Z,93470.42
2018-02-09T21:32:45.102Z,93477.96
2018-02-09T21:35:11.675Z,93474.30
2018-02-09T21:37:38.285Z,93471.00
2018-02-09T21:40:04.871Z,93480.52
2018-02-09T21:42:32.248Z,93476.58
2018-02-09T21:44:58.812Z,93481.33
2018-02-09T21:47:25.417Z,93478.91
2018-02-09T21:49:52.032Z,93475.65
2018-02-09T21:52:19.409Z,93475.85
2018-02-09T21:54:45.994Z,93483.80
2018-02-09T21:57:12.545Z,93481.22
2018-02-09T21:59:39.138Z,93483.69
2018-02-09T22:02:05.746Z,93486.08
2018-02-09T22:04:32.374Z,93486.63
2018-02-09T22:06:59.704Z,93484.32
2018-02-09T22:09:26.327Z,93482.12
2018-02-09T22:11:53.662Z,93488.94
2018-02-09T22:14:20.330Z,93492.06
2018-02-09T22:16:46.918Z,93488.20
2018-02-09T22:19:13.523Z,93490.47
2018-02-09T22:21:40.839Z,93492.86
2018-02-09T22:24:07.477Z,93490.27
2018-02-09T22:26:34.074Z,93490.11
2018-02-09T22:29:00.718Z,93492.04
2018-02-09T22:31:27.326Z,93487.45
2018-02-09T22:33:53.974Z,93484.30
2018-02-09T22:36:21.314Z,93485.00
2018-02-09T22:38:48.662Z,93483.37
2018-02-09T22:41:15.242Z,93486.63
2018-02-09T22:43:41.876Z,93489.07
2018-02-09T22:46:08.479Z,93481.19
2018-02-09T22:48:35.811Z,93481.81
2018-02-09T22:51:02.439Z,93485.88
2018-02-09T22:53:29.056Z,93481.74
2018-02-09T22:55:55.642Z,93488.73
2018-02-09T22:58:22.279Z,93481.14
2018-02-09T23:00:49.609Z,93486.36
2018-02-09T23:03:16.198Z,93480.00
2018-02-09T23:05:43.509Z,93482.85
2018-02-09T23:08:10.077Z,93484.08
2018-02-09T23:10:36.754Z,93485.94
2018-02-09T23:13:03.329Z,93490.30
2018-02-09T23:15:30.967Z,93485.91
2018-02-09T23:17:57.525Z,93489.86
2018-02-09T23:20:24.106Z,93497.77
2018-02-09T23:22:50.670Z,93496.25
2018-02-09T23:25:17.265Z,93499.53
2018-02-09T23:27:43.902Z,93498.45
2018-02-09T23:30:10.617Z,93497.61
2018-02-09T23:32:37.211Z,93501.38
2018-02-09T23:35:03.814Z,93502.50
2018-02-09T23:37:31.126Z,93500.19
2018-02-09T23:39:57.714Z,93505.05
2018-02-09T23:42:24.350Z,93500.61
2018-02-09T23:44:50.936Z,93505.37
2018-02-09T23:47:17.509Z,93506.44
2018-02-09T23:49:44.113Z,93507.64
2018-02-09T23:52:10.784Z,93505.19
2018-02-09T23:54:38.113Z,93507.77
2018-02-09T23:57:04.678Z,93502.47
2018-02-09T23:59:32.161Z,93511.60
